createdAt,value
2018-10-03T00:00:09.372Z,99.9
2018-10-03T00:01:16.314Z,99.9
2018-10-03T00:02:23.533Z,99.9
2018-10-03T00:03:30.476Z,99.9
2018-10-03T00:04:37.716Z,99.9
2018-10-03T00:05:44.941Z,99.9
2018-10-03T00:06:52.147Z,99.9
2018-10-03T00:07:59.361Z,99.9
2018-10-03T00:09:06.571Z,99.9
2018-10-03T00:10:13.795Z,99.9
2018-10-03T00:11:20.771Z,99.9
2018-10-03T00:12:27.714Z,99.9
2018-10-03T00:13:34.959Z,99.9
2018-10-03T00:14:42.177Z,99.9
2018-10-03T00:15:49.402Z,99.9
2018-10-03T00:16:56.620Z,99.9
2018-10-03T00:18:03.836Z,99.9
2018-10-03T00:19:11.057Z,99.9
2018-10-03T00:20:18.273Z,99.9
2018-10-03T00:21:25.218Z,99.9
2018-10-03T00:22:32.424Z,99.9
2018-10-03T00:23:39.654Z,99.9
2018-10-03T00:24:46.881Z,99.9
2018-10-03T00:25:54.100Z,99.9
2018-10-03T00:27:01.341Z,99.9
2018-10-03T00:28:08.277Z,99.9
2018-10-03T00:29:15.437Z,99.9
2018-10-03T00:30:22.660Z,99.9
2018-10-03T00:31:30.111Z,99.9
2018-10-03T00:32:37.317Z,99.9
2018-10-03T00:33:44.745Z,99.9
2018-10-03T00:34:51.965Z,99.9
2018-10-03T00:35:59.210Z,99.9
2018-10-03T00:37:06.438Z,99.9
2018-10-03T00:38:13.380Z,99.9
2018-10-03T00:39:20.596Z,99.9
2018-10-03T00:40:27.824Z,99.9
2018-10-03T00:41:35.043Z,99.9
2018-10-03T00:42:42.000Z,99.9
2018-10-03T00:43:49.223Z,99.9
2018-10-03T00:44:56.160Z,99.9
2018-10-03T00:46:03.389Z,99.9
2018-10-03T00:47:10.592Z,99.9
2018-10-03T00:48:17.812Z,99.9
2018-10-03T00:49:25.023Z,99.9
2018-10-03T00:50:32.251Z,99.9
2018-10-03T00:51:39.465Z,99.9
2018-10-03T00:52:46.671Z,99.9
2018-10-03T00:53:53.882Z,99.9
2018-10-03T00:55:01.114Z,99.9
2018-10-03T00:56:08.375Z,99.9
2018-10-03T00:57:15.596Z,99.9
2018-10-03T00:58:22.810Z,99.9
2018-10-03T00:59:30.035Z,99.9
2018-10-03T01:00:37.466Z,99.9
2018-10-03T01:01:44.682Z,99.9
2018-10-03T01:02:51.894Z,99.9
2018-10-03T01:03:59.115Z,99.9
2018-10-03T01:05:06.051Z,99.9
2018-10-03T01:06:13.277Z,99.9
2018-10-03T01:07:20.493Z,99.9
2018-10-03T01:08:27.708Z,99.9
2018-10-03T01:09:34.929Z,99.9
2018-10-03T01:10:42.144Z,99.9
2018-10-03T01:11:49.354Z,99.9
2018-10-03T01:12:56.311Z,99.9
2018-10-03T01:14:03.538Z,99.9
2018-10-03T01:15:10.760Z,99.9
2018-10-03T01:16:17.975Z,99.9
2018-10-03T01:17:25.194Z,99.9
2018-10-03T01:18:32.401Z,99.9
2018-10-03T01:19:39.619Z,99.9
2018-10-03T01:20:46.827Z,99.9
2018-10-03T01:21:54.032Z,99.9
2018-10-03T01:23:01.257Z,99.9
2018-10-03T01:24:08.473Z,99.9
2018-10-03T01:25:15.691Z,99.9
2018-10-03T01:26:22.633Z,99.9
2018-10-03T01:27:29.580Z,99.9
2018-10-03T01:28:36.793Z,99.9
2018-10-03T01:29:44.005Z,99.9
2018-10-03T01:30:51.224Z,99.9
2018-10-03T01:31:58.449Z,99.9
2018-10-03T01:33:05.668Z,99.9
2018-10-03T01:34:12.625Z,99.9
2018-10-03T01:35:19.847Z,99.9
2018-10-03T01:36:27.103Z,99.9
2018-10-03T01:37:34.047Z,99.9
2018-10-03T01:38:41.222Z,99.9
2018-10-03T01:39:48.441Z,99.9
2018-10-03T01:40:55.679Z,99.9
2018-10-03T01:42:02.887Z,99.9
2018-10-03T01:43:10.105Z,99.9
2018-10-03T01:44:17.319Z,99.9
2018-10-03T01:45:24.540Z,99.9
2018-10-03T01:46:31.761Z,99.9
2018-10-03T01:47:38.992Z,99.9
2018-10-03T01:48:46.208Z,99.9
2018-10-03T01:49:53.161Z,99.9
2018-10-03T01:51:00.396Z,99.9
2018-10-03T01:52:07.617Z,99.9
2018-10-03T01:53:14.832Z,99.9
2018-10-03T01:54:22.048Z,99.9
2018-10-03T01:55:29.276Z,99.9
2018-10-03T01:56:36.500Z,99.9
2018-10-03T01:57:43.444Z,99.9
2018-10-03T01:58:50.379Z,99.9
2018-10-03T01:59:57.591Z,99.9
2018-10-03T02:01:04.823Z,99.9
2018-10-03T02:02:11.795Z,99.9
2018-10-03T02:03:19.024Z,99.9
2018-10-03T02:04:26.243Z,99.9
2018-10-03T02:05:33.455Z,99.9
2018-10-03T02:06:40.682Z,99.9
2018-10-03T02:07:47.909Z,99.9
2018-10-03T02:08:55.124Z,99.9
2018-10-03T02:10:02.356Z,99.9
2018-10-03T02:11:09.583Z,99.9
2018-10-03T02:12:16.807Z,99.9
2018-10-03T02:13:24.021Z,99.9
2018-10-03T02:14:30.991Z,99.9
2018-10-03T02:15:37.932Z,99.9
2018-10-03T02:16:45.380Z,99.9
2018-10-03T02:17:52.036Z,99.9
2018-10-03T02:18:59.474Z,99.9
2018-10-03T02:20:06.692Z,99.9
2018-10-03T02:21:13.908Z,99.9
2018-10-03T02:22:21.118Z,99.9
2018-10-03T02:23:28.336Z,99.9
2018-10-03T02:24:35.562Z,99.9
2018-10-03T02:25:42.511Z,99.9
2018-10-03T02:26:49.454Z,99.9
2018-10-03T02:27:56.665Z,99.9
2018-10-03T02:29:03.879Z,99.9
2018-10-03T02:30:11.112Z,99.9
2018-10-03T02:31:18.340Z,99.9
2018-10-03T02:32:25.544Z,99.9
2018-10-03T02:33:32.764Z,99.9
2018-10-03T02:34:39.971Z,99.9
2018-10-03T02:35:47.192Z,99.9
2018-10-03T02:36:54.432Z,99.9
2018-10-03T02:38:01.648Z,99.9
2018-10-03T02:39:08.877Z,99.9
2018-10-03T02:40:16.093Z,99.9
2018-10-03T02:41:23.325Z,99.9
2018-10-03T02:42:30.552Z,99.9
2018-10-03T02:43:37.788Z,99.9
2018-10-03T02:44:44.992Z,99.9
2018-10-03T02:45:51.919Z,99.9
2018-10-03T02:46:59.148Z,99.9
2018-10-03T02:48:06.089Z,99.9
2018-10-03T02:49:13.296Z,99.9
2018-10-03T02:50:20.239Z,99.9
2018-10-03T02:51:27.462Z,99.9
2018-10-03T02:52:34.676Z,99.9
2018-10-03T02:53:41.888Z,99.9
2018-10-03T02:54:49.131Z,99.9
2018-10-03T02:55:56.344Z,99.9
2018-10-03T02:57:03.563Z,99.9
2018-10-03T02:58:10.776Z,99.9
2018-10-03T02:59:17.982Z,99.9
2018-10-03T03:00:25.204Z,99.9
2018-10-03T03:01:32.175Z,99.9
2018-10-03T03:02:39.227Z,99.9
2018-10-03T03:03:46.443Z,99.9
2018-10-03T03:04:53.391Z,99.9
2018-10-03T03:06:00.601Z,99.9
2018-10-03T03:07:07.547Z,99.9
2018-10-03T03:08:14.774Z,99.9
2018-10-03T03:09:22.007Z,99.9
2018-10-03T03:10:29.223Z,99.9
2018-10-03T03:11:36.435Z,99.9
2018-10-03T03:12:43.657Z,99.9
2018-10-03T03:13:50.871Z,99.9
2018-10-03T03:14:58.088Z,99.9
2018-10-03T03:16:05.298Z,99.9
2018-10-03T03:17:12.524Z,99.9
2018-10-03T03:18:19.463Z,99.9
2018-10-03T03:19:26.709Z,99.9
2018-10-03T03:20:33.917Z,99.9
2018-10-03T03:21:41.129Z,99.9
2018-10-03T03:22:48.345Z,99.9
2018-10-03T03:23:55.561Z,99.9
2018-10-03T03:25:02.773Z,99.9
2018-10-03T03:26:09.975Z,99.9
2018-10-03T03:27:17.214Z,99.9
2018-10-03T03:28:24.427Z,99.9
2018-10-03T03:29:31.655Z,99.9
2018-10-03T03:30:38.873Z,99.9
2018-10-03T03:31:46.095Z,99.9
2018-10-03T03:32:53.301Z,99.9
2018-10-03T03:34:00.513Z,99.9
2018-10-03T03:35:07.748Z,99.9
2018-10-03T03:36:14.966Z,99.9
2018-10-03T03:37:22.176Z,99.9
2018-10-03T03:38:29.122Z,99.9
2018-10-03T03:39:36.355Z,99.9
2018-10-03T03:40:43.028Z,99.9
2018-10-03T03:41:49.995Z,99.9
2018-10-03T03:42:56.945Z,99.9
2018-10-03T03:44:04.189Z,99.9
2018-10-03T03:45:11.410Z,99.9
2018-10-03T03:46:18.361Z,99.9
2018-10-03T03:47:25.574Z,99.9
2018-10-03T03:48:32.794Z,99.9
2018-10-03T03:49:40.006Z,99.9
2018-10-03T03:50:47.217Z,99.9
2018-10-03T03:51:54.438Z,99.9
2018-10-03T03:53:01.646Z,99.9
2018-10-03T03:54:08.869Z,99.9
2018-10-03T03:55:15.830Z,99.9
2018-10-03T03:56:23.049Z,99.9
2018-10-03T03:57:30.280Z,99.9
2018-10-03T03:58:37.500Z,99.9
2018-10-03T03:59:44.734Z,99.9
2018-10-03T04:00:51.667Z,99.9
2018-10-03T04:01:58.907Z,99.9
2018-10-03T04:03:06.117Z,99.9
2018-10-03T04:04:13.361Z,99.9
2018-10-03T04:05:20.587Z,99.9
2018-10-03T04:06:27.798Z,99.9
2018-10-03T04:07:35.013Z,99.9
2018-10-03T04:08:42.230Z,99.9
2018-10-03T04:09:49.440Z,99.9
2018-10-03T04:10:56.669Z,99.9
2018-10-03T04:12:03.899Z,99.9
2018-10-03T04:13:11.131Z,99.9
2018-10-03T04:14:18.362Z,99.9
2018-10-03T04:15:25.588Z,99.9
2018-10-03T04:16:32.814Z,99.9
2018-10-03T04:17:40.022Z,99.9
2018-10-03T04:18:47.247Z,99.9
2018-10-03T04:19:54.463Z,99.9
2018-10-03T04:21:01.673Z,99.9
2018-10-03T04:22:08.883Z,99.9
2018-10-03T04:23:16.095Z,99.9
2018-10-03T04:24:23.325Z,99.9
2018-10-03T04:25:30.539Z,99.9
2018-10-03T04:26:37.773Z,99.9
2018-10-03T04:27:44.990Z,99.9
2018-10-03T04:28:52.205Z,99.9
2018-10-03T04:29:59.422Z,99.9
2018-10-03T04:31:06.633Z,99.9
2018-10-03T04:32:13.598Z,99.9
2018-10-03T04:33:20.824Z,99.9
2018-10-03T04:34:27.777Z,99.9
2018-10-03T04:35:35.070Z,99.9
2018-10-03T04:36:42.175Z,99.9
2018-10-03T04:37:49.120Z,99.9
2018-10-03T04:38:56.338Z,99.9
2018-10-03T04:40:03.270Z,99.9
2018-10-03T04:41:10.500Z,99.9
2018-10-03T04:42:17.758Z,99.9
2018-10-03T04:43:25.369Z,99.9
2018-10-03T04:44:32.579Z,99.9
2018-10-03T04:45:39.791Z,99.9
2018-10-03T04:46:47.011Z,99.9
2018-10-03T04:47:54.230Z,99.9
2018-10-03T04:49:01.494Z,99.9
2018-10-03T04:50:09.006Z,99.9
2018-10-03T04:51:16.232Z,99.9
2018-10-03T04:52:23.171Z,99.9
2018-10-03T04:53:30.408Z,99.9
2018-10-03T04:54:37.627Z,99.9
2018-10-03T04:55:44.845Z,99.9
2018-10-03T04:56:51.792Z,99.9
2018-10-03T04:57:59.022Z,99.9
2018-10-03T04:59:06.259Z,99.9
2018-10-03T05:00:13.475Z,99.9
2018-10-03T05:01:20.698Z,99.9
2018-10-03T05:02:27.904Z,99.9
2018-10-03T05:03:34.847Z,99.9
2018-10-03T05:04:42.063Z,99.9
2018-10-03T05:05:49.010Z,99.9
2018-10-03T05:06:55.965Z,99.9
2018-10-03T05:08:03.263Z,99.9
2018-10-03T05:09:10.470Z,99.9
2018-10-03T05:10:17.681Z,99.9
2018-10-03T05:11:24.388Z,99.9
2018-10-03T05:12:32.060Z,99.9
2018-10-03T05:13:39.270Z,99.9
2018-10-03T05:14:46.492Z,99.9
2018-10-03T05:15:53.703Z,99.9
2018-10-03T05:17:00.945Z,99.9
2018-10-03T05:18:08.157Z,99.9
2018-10-03T05:19:15.381Z,99.9
2018-10-03T05:20:22.608Z,99.9
2018-10-03T05:21:29.824Z,99.9
2018-10-03T05:22:36.779Z,99.9
2018-10-03T05:23:43.994Z,99.9
2018-10-03T05:24:51.207Z,99.9
2018-10-03T05:25:58.139Z,99.9
2018-10-03T05:27:05.340Z,99.9
2018-10-03T05:28:12.560Z,99.9
2018-10-03T05:29:19.789Z,99.9
2018-10-03T05:30:26.788Z,99.9
2018-10-03T05:31:34.017Z,99.9
2018-10-03T05:32:41.222Z,99.9
2018-10-03T05:33:48.433Z,99.9
2018-10-03T05:34:55.401Z,99.9
2018-10-03T05:36:02.341Z,99.9
2018-10-03T05:37:09.572Z,99.9
2018-10-03T05:38:16.795Z,99.9
2018-10-03T05:39:24.029Z,99.9
2018-10-03T05:40:31.286Z,99.9
2018-10-03T05:41:38.227Z,99.9
2018-10-03T05:42:45.426Z,99.9
2018-10-03T05:43:52.632Z,99.9
2018-10-03T05:44:59.847Z,99.9
2018-10-03T05:46:07.070Z,99.9
2018-10-03T05:47:14.310Z,99.9
2018-10-03T05:48:21.557Z,99.9
2018-10-03T05:49:28.672Z,99.9
2018-10-03T05:50:35.933Z,99.9
2018-10-03T05:51:43.174Z,99.9
2018-10-03T05:52:50.396Z,99.9
2018-10-03T05:53:57.613Z,99.9
2018-10-03T05:55:04.831Z,99.9
2018-10-03T05:56:12.048Z,99.9
2018-10-03T05:57:19.272Z,99.9
2018-10-03T05:58:26.499Z,99.9
2018-10-03T05:59:33.718Z,99.9
2018-10-03T06:00:40.971Z,99.9
2018-10-03T06:01:48.174Z,99.9
2018-10-03T06:02:55.488Z,99.9
2018-10-03T06:04:03.109Z,99.9
2018-10-03T06:05:10.326Z,99.9
2018-10-03T06:06:17.550Z,99.9
2018-10-03T06:07:24.763Z,99.9
2018-10-03T06:08:31.974Z,99.9
2018-10-03T06:09:39.227Z,99.9
2018-10-03T06:10:46.454Z,99.9
2018-10-03T06:11:53.407Z,99.9
2018-10-03T06:13:00.392Z,99.9
2018-10-03T06:14:07.359Z,99.9
2018-10-03T06:15:14.579Z,99.9
2018-10-03T06:16:21.822Z,99.9
2018-10-03T06:17:29.072Z,99.9
2018-10-03T06:18:36.333Z,99.9
2018-10-03T06:19:44.184Z,99.9
2018-10-03T06:20:51.253Z,99.9
2018-10-03T06:21:58.194Z,99.9
2018-10-03T06:23:05.139Z,99.9
2018-10-03T06:24:12.074Z,99.9
2018-10-03T06:25:19.021Z,99.9
2018-10-03T06:26:25.684Z,99.9
2018-10-03T06:27:32.649Z,99.9
2018-10-03T06:28:39.330Z,99.9
2018-10-03T06:29:46.557Z,99.9
2018-10-03T06:30:53.525Z,99.9
2018-10-03T06:32:00.513Z,99.9
2018-10-03T06:33:07.450Z,99.9
2018-10-03T06:34:14.680Z,99.9
2018-10-03T06:35:21.914Z,99.9
2018-10-03T06:36:29.141Z,99.9
2018-10-03T06:37:36.365Z,99.9
2018-10-03T06:38:43.588Z,99.9
2018-10-03T06:39:50.812Z,99.9
2018-10-03T06:40:57.750Z,99.9
2018-10-03T06:42:04.965Z,99.9
2018-10-03T06:43:12.184Z,99.9
2018-10-03T06:44:19.421Z,99.9
2018-10-03T06:45:26.365Z,99.9
2018-10-03T06:46:33.756Z,99.9
2018-10-03T06:47:40.971Z,99.9
2018-10-03T06:48:48.429Z,99.9
2018-10-03T06:49:55.637Z,99.9
2018-10-03T06:51:02.885Z,99.9
2018-10-03T06:52:10.120Z,99.9
2018-10-03T06:53:17.333Z,99.9
2018-10-03T06:54:24.550Z,99.9
2018-10-03T06:55:31.768Z,99.9
2018-10-03T06:56:38.999Z,99.9
2018-10-03T06:57:46.216Z,99.9
2018-10-03T06:58:53.436Z,99.9
2018-10-03T07:00:00.711Z,99.9
2018-10-03T07:01:07.943Z,99.9
2018-10-03T07:02:15.179Z,99.9
2018-10-03T07:03:22.403Z,99.9
2018-10-03T07:04:29.616Z,99.9
2018-10-03T07:05:36.878Z,99.9
2018-10-03T07:06:44.115Z,99.9
2018-10-03T07:07:51.332Z,99.9
2018-10-03T07:08:58.271Z,99.9
2018-10-03T07:10:05.497Z,99.9
2018-10-03T07:11:12.441Z,99.9
2018-10-03T07:12:19.679Z,99.9
2018-10-03T07:13:26.903Z,99.9
2018-10-03T07:14:33.842Z,99.9
2018-10-03T07:15:41.084Z,99.9
2018-10-03T07:16:48.301Z,99.9
2018-10-03T07:17:55.534Z,99.9
2018-10-03T07:19:02.794Z,99.9
2018-10-03T07:20:10.055Z,99.9
2018-10-03T07:21:17.548Z,99.9
2018-10-03T07:22:24.772Z,99.9
2018-10-03T07:23:31.997Z,99.9
2018-10-03T07:24:39.221Z,99.9
2018-10-03T07:25:46.448Z,99.9
2018-10-03T07:26:53.679Z,99.9
2018-10-03T07:28:00.899Z,99.9
2018-10-03T07:29:08.185Z,99.9
2018-10-03T07:30:14.873Z,99.9
2018-10-03T07:31:21.817Z,99.9
2018-10-03T07:32:29.060Z,99.9
2018-10-03T07:33:36.117Z,99.9
2018-10-03T07:34:43.332Z,99.9
2018-10-03T07:35:50.294Z,99.9
2018-10-03T07:36:57.531Z,99.9
2018-10-03T07:38:04.755Z,99.9
2018-10-03T07:39:11.983Z,99.9
2018-10-03T07:40:19.228Z,99.9
2018-10-03T07:41:26.473Z,99.9
2018-10-03T07:42:33.683Z,99.9
2018-10-03T07:43:40.902Z,99.9
2018-10-03T07:44:48.125Z,99.9
2018-10-03T07:45:55.337Z,99.9
2018-10-03T07:47:02.565Z,99.9
2018-10-03T07:48:09.870Z,99.9
2018-10-03T07:49:17.519Z,99.9
2018-10-03T07:50:24.476Z,99.9
2018-10-03T07:51:31.714Z,99.9
2018-10-03T07:52:38.379Z,99.9
2018-10-03T07:53:45.611Z,99.9
2018-10-03T07:54:52.838Z,99.9
2018-10-03T07:56:00.086Z,99.9
2018-10-03T07:57:07.363Z,99.9
2018-10-03T07:58:14.590Z,99.9
2018-10-03T07:59:21.537Z,99.9
2018-10-03T08:00:28.818Z,99.9
2018-10-03T08:01:36.069Z,99.9
2018-10-03T08:02:43.315Z,99.9
2018-10-03T08:03:50.545Z,99.9
2018-10-03T08:04:57.498Z,99.9
2018-10-03T08:06:04.461Z,99.9
2018-10-03T08:07:11.712Z,99.9
2018-10-03T08:08:18.983Z,99.9
2018-10-03T08:09:25.940Z,99.9
2018-10-03T08:10:33.203Z,99.9
2018-10-03T08:11:40.434Z,99.9
2018-10-03T08:12:47.668Z,99.9
2018-10-03T08:13:54.343Z,99.9
2018-10-03T08:15:01.600Z,99.9
2018-10-03T08:16:08.825Z,99.9
2018-10-03T08:17:16.113Z,99.9
2018-10-03T08:18:23.467Z,99.9
2018-10-03T08:19:30.690Z,99.9
2018-10-03T08:20:37.909Z,99.9
2018-10-03T08:21:45.169Z,99.9
2018-10-03T08:22:52.455Z,99.9
2018-10-03T08:23:59.919Z,99.9
2018-10-03T08:25:07.171Z,99.9
2018-10-03T08:26:14.411Z,99.9
2018-10-03T08:27:21.639Z,99.9
2018-10-03T08:28:28.886Z,99.9
2018-10-03T08:29:36.132Z,99.9
2018-10-03T08:30:43.380Z,99.9
2018-10-03T08:31:50.672Z,99.9
2018-10-03T08:32:58.064Z,99.9
2018-10-03T08:34:05.514Z,99.9
2018-10-03T08:35:12.749Z,99.9
2018-10-03T08:36:19.974Z,99.9
2018-10-03T08:37:27.198Z,99.9
2018-10-03T08:38:34.475Z,99.9
2018-10-03T08:39:41.163Z,99.9
2018-10-03T08:40:48.385Z,99.9
2018-10-03T08:41:55.646Z,99.9
2018-10-03T08:43:02.886Z,99.9
2018-10-03T08:44:09.869Z,99.9
2018-10-03T08:45:17.086Z,99.9
2018-10-03T08:46:24.321Z,99.9
2018-10-03T08:47:31.546Z,99.9
2018-10-03T08:48:38.793Z,99.9
2018-10-03T08:50:59.016Z,99.9
2018-10-03T08:52:06.259Z,99.9
2018-10-03T08:53:13.489Z,99.9
2018-10-03T08:54:20.710Z,99.9
2018-10-03T08:55:27.675Z,99.9
2018-10-03T08:56:34.913Z,99.9
2018-10-03T08:57:42.148Z,99.9
2018-10-03T08:58:49.373Z,99.9
2018-10-03T08:59:56.617Z,99.9
2018-10-03T09:01:03.843Z,99.9
2018-10-03T09:02:11.088Z,99.9
2018-10-03T09:03:18.320Z,99.9
2018-10-03T09:04:25.567Z,99.9
2018-10-03T09:05:32.525Z,99.9
2018-10-03T09:06:39.757Z,99.9
2018-10-03T09:07:47.004Z,99.9
2018-10-03T09:08:54.242Z,99.9
2018-10-03T09:10:01.489Z,99.9
2018-10-03T09:11:08.736Z,99.9
2018-10-03T09:12:15.978Z,99.9
2018-10-03T09:13:23.217Z,99.9
2018-10-03T09:14:30.453Z,99.9
2018-10-03T09:15:37.702Z,99.9
2018-10-03T09:16:44.928Z,99.9
2018-10-03T09:17:52.192Z,99.9
2018-10-03T09:18:59.170Z,99.9
2018-10-03T09:20:06.421Z,99.9
2018-10-03T09:21:13.467Z,99.9
2018-10-03T09:22:20.848Z,99.9
2018-10-03T09:23:28.099Z,99.9
2018-10-03T09:24:35.345Z,99.9
2018-10-03T09:25:42.312Z,99.9
2018-10-03T09:26:49.539Z,99.9
2018-10-03T09:27:56.756Z,99.9
2018-10-03T09:29:03.716Z,99.9
2018-10-03T09:30:10.940Z,99.9
2018-10-03T09:31:18.169Z,99.9
2018-10-03T09:32:25.412Z,99.9
2018-10-03T09:33:32.652Z,99.9
2018-10-03T09:34:39.618Z,99.9
2018-10-03T09:35:46.878Z,99.9
2018-10-03T09:36:53.820Z,99.9
2018-10-03T09:38:01.088Z,99.9
2018-10-03T09:39:08.336Z,99.9
2018-10-03T09:40:15.583Z,99.9
2018-10-03T09:41:22.818Z,99.9
2018-10-03T09:42:29.782Z,99.9
2018-10-03T09:43:37.009Z,99.9
2018-10-03T09:44:44.243Z,99.9
2018-10-03T09:47:12.789Z,99.9
2018-10-03T09:48:20.007Z,99.9
2018-10-03T09:49:27.256Z,99.9
2018-10-03T09:50:34.488Z,99.9
2018-10-03T09:51:41.753Z,99.9
2018-10-03T09:52:48.728Z,99.9
2018-10-03T09:53:55.941Z,99.9
2018-10-03T09:55:03.177Z,99.9
2018-10-03T09:56:10.404Z,99.9
2018-10-03T09:57:17.646Z,99.9
2018-10-03T09:58:24.904Z,99.9
2018-10-03T09:59:32.130Z,99.9
2018-10-03T10:00:39.416Z,99.9
2018-10-03T10:01:46.741Z,99.9
2018-10-03T10:02:53.974Z,99.9
2018-10-03T10:04:01.231Z,99.9
2018-10-03T10:05:08.476Z,99.9
2018-10-03T10:06:15.707Z,99.9
2018-10-03T10:07:22.936Z,99.9
2018-10-03T10:08:30.156Z,99.9
2018-10-03T10:09:37.377Z,99.9
2018-10-03T10:10:44.353Z,99.9
2018-10-03T10:11:51.322Z,99.9
2018-10-03T10:12:58.278Z,99.9
2018-10-03T10:14:05.510Z,99.9
2018-10-03T10:15:12.754Z,99.9
2018-10-03T10:16:20.010Z,99.9
2018-10-03T10:17:27.285Z,99.9
2018-10-03T10:18:34.515Z,99.9
2018-10-03T10:19:41.743Z,99.9
2018-10-03T10:20:48.983Z,99.9
2018-10-03T10:21:56.554Z,99.9
2018-10-03T10:23:03.785Z,99.9
2018-10-03T10:24:10.738Z,99.9
2018-10-03T10:25:17.976Z,99.9
2018-10-03T10:26:25.215Z,99.9
2018-10-03T10:27:32.446Z,99.9
2018-10-03T10:28:39.697Z,99.9
2018-10-03T10:29:46.651Z,99.9
2018-10-03T10:30:53.602Z,99.9
2018-10-03T10:32:00.834Z,99.9
2018-10-03T10:33:08.239Z,99.9
2018-10-03T10:34:15.955Z,99.9
2018-10-03T10:37:42.218Z,99.9
2018-10-03T10:38:49.807Z,99.9
2018-10-03T10:39:57.065Z,99.9
2018-10-03T10:41:04.440Z,99.9
2018-10-03T10:42:12.176Z,99.9
2018-10-03T10:43:19.463Z,99.9
2018-10-03T10:44:26.972Z,99.9
2018-10-03T10:45:33.942Z,99.9
2018-10-03T10:46:41.222Z,99.9
2018-10-03T10:47:48.739Z,99.9
2018-10-03T10:48:56.209Z,99.9
2018-10-03T10:50:03.443Z,99.9
2018-10-03T10:51:10.974Z,99.9
2018-10-03T10:52:18.218Z,99.9
2018-10-03T10:53:25.458Z,99.9
2018-10-03T10:54:32.741Z,99.9
2018-10-03T10:55:39.981Z,99.9
2018-10-03T10:56:47.234Z,99.9
2018-10-03T10:59:01.426Z,99.9
2018-10-03T11:00:08.880Z,99.9
2018-10-03T11:01:16.121Z,99.9
2018-10-03T11:02:23.609Z,99.9
2018-10-03T11:03:30.567Z,99.9
2018-10-03T11:04:37.778Z,99.9
2018-10-03T11:05:45.021Z,99.9
2018-10-03T11:06:52.275Z,99.9
2018-10-03T11:07:59.511Z,99.9
2018-10-03T11:09:06.977Z,99.9
2018-10-03T11:10:14.227Z,99.9
2018-10-03T11:11:21.480Z,99.9
2018-10-03T11:12:28.702Z,99.9
2018-10-03T11:13:35.669Z,99.9
2018-10-03T11:14:42.888Z,99.9
2018-10-03T11:15:50.145Z,96.2
2018-10-03T11:16:57.393Z,97.9
2018-10-03T11:18:05.142Z,99.9
2018-10-03T11:19:12.405Z,97.9
2018-10-03T11:20:19.629Z,97.8
2018-10-03T11:21:26.851Z,97.7
2018-10-03T11:22:34.044Z,94.2
2018-10-03T11:23:41.076Z,96.9
2018-10-03T11:24:49.580Z,96.8
2018-10-03T11:25:57.840Z,90
2018-10-03T11:27:05.085Z,90.8
2018-10-03T11:28:12.326Z,89.2
2018-10-03T11:29:19.314Z,89.3
2018-10-03T11:30:26.557Z,91.3
2018-10-03T11:31:33.797Z,91.1
2018-10-03T11:32:41.030Z,92.1
2018-10-03T11:33:48.228Z,90
2018-10-03T11:34:55.179Z,90.1
2018-10-03T11:36:02.651Z,90
2018-10-03T11:37:09.881Z,82.9
2018-10-03T11:38:17.359Z,79.9
2018-10-03T11:39:24.766Z,72.2
2018-10-03T11:40:31.754Z,75.9
2018-10-03T11:41:39.023Z,68
2018-10-03T11:42:46.465Z,76
2018-10-03T11:43:53.740Z,76.1
2018-10-03T11:45:01.354Z,52.3
2018-10-03T11:46:08.580Z,55.2
2018-10-03T11:47:15.765Z,57.2
2018-10-03T11:48:23.012Z,46
2018-10-03T11:49:30.486Z,45.4
2018-10-03T11:50:37.846Z,52.9
2018-10-03T11:51:45.665Z,48.2
2018-10-03T11:52:52.900Z,50.9
2018-10-03T11:54:00.161Z,63
2018-10-03T11:55:07.421Z,56.3
2018-10-03T11:56:14.665Z,58.7
2018-10-03T11:57:21.644Z,62.9
2018-10-03T11:58:28.877Z,67
2018-10-03T11:59:36.160Z,63.9
2018-10-03T12:00:44.198Z,62.6
2018-10-03T12:01:51.429Z,61.7
2018-10-03T12:02:59.348Z,65.4
2018-10-03T12:04:07.194Z,69.8
2018-10-03T12:05:14.466Z,63.8
2018-10-03T12:06:21.714Z,56.2
2018-10-03T12:07:29.318Z,60.5
2018-10-03T22:00:05.560Z,99.9
2018-10-03T22:01:12.722Z,99.9
2018-10-03T22:02:19.666Z,99.9
2018-10-03T22:03:26.636Z,99.9
2018-10-03T22:04:33.881Z,99.9
2018-10-03T22:05:41.103Z,99.9
2018-10-03T22:06:48.329Z,99.9
2018-10-03T22:07:55.558Z,99.9
2018-10-03T22:09:02.781Z,99.9
2018-10-03T22:10:10.007Z,99.9
2018-10-03T22:11:17.223Z,99.9
2018-10-03T22:12:24.716Z,99.9
2018-10-03T22:13:31.940Z,99.9
2018-10-03T22:14:39.178Z,99.9
2018-10-03T22:15:46.388Z,99.9
2018-10-03T22:16:53.630Z,99.9
2018-10-03T22:18:00.862Z,99.9
2018-10-03T22:19:08.090Z,99.9
2018-10-03T22:20:15.313Z,99.9
2018-10-03T22:21:22.542Z,99.9
2018-10-03T22:22:29.773Z,99.9
2018-10-03T22:23:37.100Z,99.9
2018-10-03T22:24:44.318Z,99.9
2018-10-03T22:27:04.251Z,99.9
2018-10-03T22:28:11.688Z,99.9
2018-10-03T22:29:18.908Z,99.9
2018-10-03T22:30:26.118Z,99.9
2018-10-03T22:31:33.356Z,99.9
2018-10-03T22:32:40.584Z,99.9
2018-10-03T22:33:47.823Z,99.9
2018-10-03T22:34:55.037Z,99.9
2018-10-03T22:36:01.971Z,99.9
2018-10-03T22:37:09.418Z,99.9
2018-10-03T22:38:16.354Z,99.9
2018-10-03T22:39:23.801Z,99.9
2018-10-03T22:40:31.017Z,99.9
2018-10-03T22:41:38.261Z,99.9
2018-10-03T22:42:45.490Z,99.9
2018-10-03T22:43:52.440Z,99.9
2018-10-03T22:44:59.679Z,99.9
2018-10-03T22:46:06.908Z,99.9
2018-10-03T22:47:14.141Z,99.9
2018-10-03T22:48:21.369Z,99.9
2018-10-03T22:49:28.605Z,99.9
2018-10-03T22:50:35.843Z,99.9
2018-10-03T22:51:43.116Z,99.9
2018-10-03T22:52:50.559Z,99.9
2018-10-03T22:53:57.766Z,99.9
2018-10-03T22:55:05.224Z,99.9
2018-10-03T22:56:12.453Z,99.9
2018-10-03T22:57:19.671Z,99.9
2018-10-03T22:58:26.901Z,99.9
2018-10-03T22:59:33.850Z,99.9
2018-10-03T23:00:41.090Z,99.9
2018-10-03T23:01:48.327Z,99.9
2018-10-03T23:02:55.569Z,99.9
2018-10-03T23:04:03.002Z,99.9
2018-10-03T23:05:10.220Z,99.9
2018-10-03T23:06:17.753Z,99.9
2018-10-03T23:07:25.055Z,99.9
2018-10-03T23:08:31.920Z,99.9
2018-10-03T23:09:39.146Z,99.9
2018-10-03T23:10:46.385Z,99.9
2018-10-03T23:11:53.614Z,99.9
2018-10-03T23:13:00.831Z,99.9
2018-10-03T23:14:08.053Z,99.9
2018-10-03T23:15:15.518Z,99.9
2018-10-03T23:16:22.731Z,99.9
2018-10-03T23:17:30.179Z,99.9
2018-10-03T23:18:37.389Z,99.9
2018-10-03T23:19:44.550Z,99.9
2018-10-03T23:20:51.775Z,99.9
2018-10-03T23:21:58.985Z,99.9
2018-10-03T23:23:06.196Z,99.9
2018-10-03T23:24:13.443Z,99.9
2018-10-03T23:25:20.406Z,99.9
2018-10-03T23:26:27.649Z,99.9
2018-10-03T23:27:34.874Z,99.9
2018-10-03T23:28:42.138Z,99.9
2018-10-03T23:29:49.359Z,99.9
2018-10-03T23:30:56.572Z,99.9
2018-10-03T23:32:03.801Z,99.9
2018-10-03T23:33:11.247Z,99.9
2018-10-03T23:34:18.464Z,99.9
2018-10-03T23:35:25.906Z,99.9
2018-10-03T23:36:33.108Z,99.9
2018-10-03T23:37:40.343Z,99.9
2018-10-03T23:38:47.302Z,99.9
2018-10-03T23:39:54.257Z,99.9
2018-10-03T23:41:01.493Z,99.9
2018-10-03T23:42:08.779Z,99.9
2018-10-03T23:43:16.281Z,99.9
2018-10-03T23:44:23.721Z,99.9
2018-10-03T23:45:30.931Z,99.9
2018-10-03T23:46:38.351Z,99.9
2018-10-03T23:47:45.572Z,99.9
2018-10-03T23:48:52.800Z,99.9
2018-10-03T23:50:00.028Z,99.9
2018-10-03T23:51:07.260Z,99.9
2018-10-03T23:52:14.476Z,99.9
2018-10-03T23:53:21.703Z,99.9
2018-10-03T23:54:28.919Z,99.9
2018-10-03T23:55:36.355Z,99.9
2018-10-03T23:56:43.562Z,99.9
2018-10-03T23:57:51.008Z,99.9
2018-10-03T23:58:58.217Z,99.9
